createdAt,value
2023-05-06T00:00:39.534Z,10.00
2023-05-06T00:01:36.770Z,10.32
2023-05-06T00:02:33.758Z,8.85
2023-05-06T00:03:30.910Z,8.10
2023-05-06T00:04:28.452Z,8.50
2023-05-06T00:05:25.490Z,10.43
2023-05-06T00:06:22.643Z,8.65
2023-05-06T00:07:19.615Z,8.65
2023-05-06T00:08:16.798Z,11.55
2023-05-06T00:09:13.787Z,9.02
2023-05-06T00:10:10.927Z,8.88
2023-05-06T00:11:07.959Z,8.32
2023-05-06T00:12:05.753Z,9.38
2023-05-06T00:13:02.773Z,10.85
2023-05-06T00:13:59.890Z,10.73
2023-05-06T00:14:56.846Z,10.68
2023-05-06T00:15:53.786Z,9.30
2023-05-06T00:16:52.385Z,8.60
2023-05-06T00:17:49.349Z,9.77
2023-05-06T00:18:46.290Z,9.10
2023-05-06T00:19:44.629Z,9.48
2023-05-06T00:20:42.232Z,8.85
2023-05-06T00:21:39.213Z,8.93
2023-05-06T00:22:36.247Z,8.90
2023-05-06T00:23:33.547Z,8.90
2023-05-06T00:24:31.047Z,8.77
2023-05-06T00:25:27.984Z,8.85
2023-05-06T00:26:25.025Z,9.10
2023-05-06T00:27:21.985Z,9.25
2023-05-06T00:28:18.935Z,8.80
2023-05-06T00:29:16.230Z,10.43
2023-05-06T00:30:13.595Z,8.80
2023-05-06T00:31:10.580Z,11.88
2023-05-06T00:32:07.702Z,10.90
2023-05-06T00:33:04.911Z,9.50
2023-05-06T00:34:01.948Z,9.10
2023-05-06T00:34:59.014Z,9.18
2023-05-06T00:35:55.953Z,8.80
2023-05-06T00:36:52.923Z,8.55
2023-05-06T00:38:10.189Z,9.77
2023-05-06T00:39:07.245Z,8.88
2023-05-06T00:40:04.736Z,11.43
2023-05-06T00:41:01.932Z,9.90
2023-05-06T00:42:02.475Z,8.70
2023-05-06T00:42:59.429Z,9.30
2023-05-06T00:43:56.430Z,10.25
2023-05-06T00:44:53.368Z,9.00
2023-05-06T00:45:51.530Z,8.98
2023-05-06T00:46:48.589Z,10.38
2023-05-06T00:47:45.662Z,8.95
2023-05-06T00:48:43.225Z,9.43
2023-05-06T00:49:40.332Z,8.77
2023-05-06T00:50:39.249Z,9.68
2023-05-06T00:51:36.263Z,8.75
2023-05-06T00:52:33.269Z,8.73
2023-05-06T00:53:30.766Z,9.32
2023-05-06T00:54:27.928Z,8.95
2023-05-06T00:55:25.372Z,8.18
2023-05-06T00:56:22.333Z,8.85
2023-05-06T00:57:19.308Z,8.35
2023-05-06T00:58:16.386Z,8.57
2023-05-06T00:59:13.349Z,9.82
2023-05-06T01:00:12.027Z,9.75
2023-05-06T01:01:09.061Z,8.40
2023-05-06T01:02:06.072Z,9.77
2023-05-06T01:03:03.167Z,12.88
2023-05-06T01:04:01.166Z,9.30
2023-05-06T01:04:58.813Z,8.45
2023-05-06T01:06:07.928Z,9.15
2023-05-06T01:07:10.670Z,8.73
2023-05-06T01:08:13.852Z,8.40
2023-05-06T01:09:25.370Z,9.52
2023-05-06T01:10:29.557Z,8.95
2023-05-06T01:11:46.435Z,8.95
2023-05-06T01:12:51.322Z,7.65
2023-05-06T01:13:59.091Z,9.32
2023-05-06T01:15:10.848Z,12.40
2023-05-06T01:16:09.357Z,8.98
2023-05-06T01:17:10.037Z,9.43
2023-05-06T01:18:11.009Z,8.85
2023-05-06T01:19:10.054Z,14.63
2023-05-06T01:20:10.951Z,11.20
2023-05-06T01:22:07.577Z,8.55
2023-05-06T01:23:14.171Z,9.90
2023-05-06T01:24:11.231Z,11.02
2023-05-06T01:25:08.913Z,9.32
2023-05-06T01:26:06.062Z,10.02
2023-05-06T01:27:03.012Z,9.60
2023-05-06T01:27:59.993Z,11.15
2023-05-06T01:28:57.725Z,9.30
2023-05-06T01:29:54.949Z,10.32
2023-05-06T01:30:56.334Z,8.77
2023-05-06T01:31:55.299Z,10.25
2023-05-06T01:33:04.946Z,9.50
2023-05-06T01:34:31.964Z,9.20
2023-05-06T01:35:47.075Z,14.40
2023-05-06T01:36:44.008Z,9.40
2023-05-06T01:38:05.407Z,8.82
2023-05-06T01:39:19.312Z,11.35
2023-05-06T01:40:17.147Z,8.65
2023-05-06T01:41:17.038Z,8.90
2023-05-06T01:42:14.623Z,10.10
2023-05-06T01:43:12.259Z,10.55
2023-05-06T01:44:09.556Z,8.38
2023-05-06T01:45:08.026Z,9.38
2023-05-06T01:46:06.300Z,9.63
2023-05-06T01:47:03.509Z,11.88
2023-05-06T01:48:00.622Z,9.48
2023-05-06T01:48:58.791Z,9.00
2023-05-06T01:49:56.416Z,8.30
2023-05-06T01:50:53.575Z,8.73
2023-05-06T01:51:51.632Z,8.10
2023-05-06T01:53:00.068Z,9.73
2023-05-06T01:53:57.073Z,9.18
2023-05-06T01:54:53.992Z,8.85
2023-05-06T01:55:50.963Z,10.27
2023-05-06T01:56:47.988Z,8.85
2023-05-06T01:57:44.914Z,9.05
2023-05-06T01:58:41.912Z,8.98
2023-05-06T01:59:38.954Z,8.50
2023-05-06T02:00:39.195Z,13.15
2023-05-06T02:01:36.270Z,9.85
2023-05-06T02:02:33.332Z,9.45
2023-05-06T02:03:30.468Z,9.77
2023-05-06T02:04:27.476Z,8.48
2023-05-06T02:05:24.473Z,9.35
2023-05-06T02:06:21.433Z,9.95
2023-05-06T02:07:18.640Z,8.05
2023-05-06T02:08:15.753Z,13.00
2023-05-06T02:09:12.653Z,9.20
2023-05-06T02:10:09.767Z,9.85
2023-05-06T02:11:06.835Z,10.40
2023-05-06T02:12:03.934Z,8.68
2023-05-06T02:13:01.752Z,8.23
2023-05-06T02:13:58.775Z,8.45
2023-05-06T02:14:56.710Z,9.05
2023-05-06T02:15:54.785Z,8.40
2023-05-06T02:16:51.877Z,9.45
2023-05-06T02:17:49.509Z,9.07
2023-05-06T02:18:46.505Z,9.65
2023-05-06T02:19:43.514Z,8.43
2023-05-06T02:20:40.535Z,8.95
2023-05-06T02:21:37.495Z,9.10
2023-05-06T02:22:34.552Z,9.50
2023-05-06T02:23:31.585Z,8.48
2023-05-06T02:24:28.513Z,8.27
2023-05-06T02:25:25.496Z,9.10
2023-05-06T02:26:22.469Z,9.65
2023-05-06T02:27:19.512Z,10.35
2023-05-06T02:28:16.482Z,10.20
2023-05-06T02:29:13.545Z,8.95
2023-05-06T02:30:11.204Z,9.02
2023-05-06T02:31:08.310Z,9.15
2023-05-06T02:32:05.621Z,9.38
2023-05-06T02:33:03.290Z,9.00
2023-05-06T02:34:00.354Z,8.48
2023-05-06T02:34:57.538Z,11.20
2023-05-06T02:35:54.512Z,9.27
2023-05-06T02:36:51.465Z,9.68
2023-05-06T02:37:48.390Z,9.93
2023-05-06T02:38:45.442Z,8.75
2023-05-06T02:39:42.373Z,8.38
2023-05-06T02:40:39.354Z,8.02
2023-05-06T02:41:36.397Z,8.80
2023-05-06T02:42:35.807Z,8.57
2023-05-06T02:43:32.858Z,9.10
2023-05-06T02:44:29.934Z,8.15
2023-05-06T02:45:26.892Z,8.75
2023-05-06T02:46:23.919Z,8.70
2023-05-06T02:47:20.956Z,8.18
2023-05-06T02:48:17.975Z,10.48
2023-05-06T02:49:14.922Z,7.85
2023-05-06T02:50:11.937Z,8.30
2023-05-06T02:51:09.068Z,8.07
2023-05-06T02:52:06.121Z,7.93
2023-05-06T02:53:03.132Z,8.27
2023-05-06T02:54:00.161Z,8.30
2023-05-06T02:54:57.109Z,8.43
2023-05-06T02:55:54.074Z,10.90
2023-05-06T02:56:51.010Z,8.98
2023-05-06T02:57:47.979Z,9.35
2023-05-06T02:58:44.932Z,9.32
2023-05-06T02:59:41.976Z,9.70
2023-05-06T03:00:39.022Z,10.10
2023-05-06T03:01:35.999Z,8.45
2023-05-06T03:02:33.070Z,9.10
2023-05-06T03:03:29.992Z,8.60
2023-05-06T03:04:27.012Z,10.48
2023-05-06T03:05:24.050Z,8.48
2023-05-06T03:06:21.051Z,9.55
2023-05-06T03:07:18.052Z,8.82
2023-05-06T03:08:15.090Z,9.70
2023-05-06T03:09:12.111Z,8.43
2023-05-06T03:10:09.527Z,10.10
2023-05-06T03:11:07.978Z,8.82
2023-05-06T03:12:06.433Z,10.38
2023-05-06T03:13:03.378Z,10.82
2023-05-06T03:14:00.349Z,9.43
2023-05-06T03:14:57.293Z,8.45
2023-05-06T03:15:54.571Z,8.55
2023-05-06T03:16:51.732Z,8.50
2023-05-06T03:17:48.805Z,9.27
2023-05-06T03:18:45.788Z,8.50
2023-05-06T03:19:42.730Z,10.55
2023-05-06T03:20:39.650Z,8.82
2023-05-06T03:21:36.603Z,9.75
2023-05-06T03:22:33.651Z,10.13
2023-05-06T03:23:30.673Z,8.65
2023-05-06T03:24:27.579Z,8.85
2023-05-06T03:25:24.550Z,9.55
2023-05-06T03:26:22.385Z,9.23
2023-05-06T03:27:19.330Z,9.15
2023-05-06T03:28:16.313Z,9.98
2023-05-06T03:29:13.373Z,8.82
2023-05-06T03:30:11.358Z,8.35
2023-05-06T03:31:08.456Z,8.90
2023-05-06T03:32:05.993Z,9.43
2023-05-06T03:33:03.112Z,8.82
2023-05-06T03:34:00.156Z,10.75
2023-05-06T03:34:57.069Z,8.82
2023-05-06T03:35:54.069Z,8.77
2023-05-06T03:36:51.063Z,8.68
2023-05-06T03:37:48.008Z,8.65
2023-05-06T03:38:44.970Z,8.45
2023-05-06T03:39:42.010Z,9.05
2023-05-06T03:40:39.033Z,7.97
2023-05-06T03:41:36.011Z,10.02
2023-05-06T03:42:32.931Z,8.13
2023-05-06T03:43:29.887Z,8.48
2023-05-06T03:44:26.829Z,8.85
2023-05-06T03:45:24.048Z,8.13
2023-05-06T03:46:21.081Z,7.78
2023-05-06T03:47:18.132Z,8.05
2023-05-06T03:48:15.186Z,8.23
2023-05-06T03:49:12.432Z,8.40
2023-05-06T03:50:09.929Z,9.10
2023-05-06T03:51:07.047Z,8.25
2023-05-06T03:52:04.112Z,9.18
2023-05-06T03:53:01.142Z,8.88
2023-05-06T03:53:58.327Z,8.63
2023-05-06T03:54:55.365Z,10.05
2023-05-06T03:55:52.376Z,10.05
2023-05-06T03:56:49.389Z,10.00
2023-05-06T03:57:46.389Z,9.60
2023-05-06T03:58:43.446Z,10.55
2023-05-06T03:59:40.346Z,10.02
2023-05-06T04:00:37.293Z,10.27
2023-05-06T04:01:34.570Z,12.00
2023-05-06T04:02:31.687Z,10.77
2023-05-06T04:03:28.789Z,9.10
2023-05-06T04:04:27.537Z,9.35
2023-05-06T04:05:24.451Z,8.30
2023-05-06T04:06:21.544Z,8.10
2023-05-06T04:07:18.509Z,8.00
2023-05-06T04:08:17.387Z,8.52
2023-05-06T04:09:14.306Z,7.93
2023-05-06T04:10:11.411Z,9.80
2023-05-06T04:11:08.525Z,8.00
2023-05-06T04:12:05.632Z,9.27
2023-05-06T04:13:02.674Z,7.87
2023-05-06T04:13:59.761Z,7.90
2023-05-06T04:14:56.730Z,7.80
2023-05-06T04:15:53.784Z,8.77
2023-05-06T04:16:50.909Z,7.87
2023-05-06T04:17:47.989Z,7.93
2023-05-06T04:18:46.326Z,9.73
2023-05-06T04:19:43.426Z,8.50
2023-05-06T04:20:40.426Z,7.87
2023-05-06T04:21:37.470Z,8.13
2023-05-06T04:22:34.487Z,7.93
2023-05-06T04:23:31.550Z,9.00
2023-05-06T04:24:31.522Z,10.13
2023-05-06T04:25:29.088Z,7.72
2023-05-06T04:26:26.047Z,11.23
2023-05-06T04:27:22.989Z,9.98
2023-05-06T04:28:19.970Z,7.15
2023-05-06T04:29:16.891Z,7.30
2023-05-06T04:30:14.074Z,7.30
2023-05-06T04:31:11.235Z,7.80
2023-05-06T04:32:11.928Z,8.77
2023-05-06T04:33:09.186Z,8.75
2023-05-06T04:34:06.250Z,7.72
2023-05-06T04:35:03.629Z,8.95
2023-05-06T04:36:00.911Z,7.87
2023-05-06T04:36:58.516Z,7.62
2023-05-06T04:37:56.893Z,8.25
2023-05-06T04:38:53.851Z,8.05
2023-05-06T04:39:50.813Z,8.27
2023-05-06T04:40:48.340Z,7.97
2023-05-06T04:41:45.308Z,7.20
2023-05-06T04:42:43.062Z,7.50
2023-05-06T04:43:40.153Z,8.45
2023-05-06T04:44:37.133Z,7.20
2023-05-06T04:45:34.735Z,7.72
2023-05-06T04:46:31.689Z,7.72
2023-05-06T04:47:28.962Z,7.40
2023-05-06T04:48:26.455Z,7.43
2023-05-06T04:49:23.535Z,7.62
2023-05-06T04:50:20.528Z,7.80
2023-05-06T04:51:17.510Z,9.15
2023-05-06T04:52:14.491Z,7.03
2023-05-06T04:53:11.533Z,7.37
2023-05-06T04:54:08.533Z,8.07
2023-05-06T04:55:05.964Z,7.55
2023-05-06T04:56:02.896Z,9.27
2023-05-06T04:56:59.874Z,7.32
2023-05-06T04:57:56.854Z,7.12
2023-05-06T04:58:53.842Z,6.80
2023-05-06T04:59:50.933Z,7.18
2023-05-06T05:00:47.871Z,7.97
2023-05-06T05:01:44.866Z,6.65
2023-05-06T05:02:41.935Z,10.57
2023-05-06T05:03:39.046Z,8.07
2023-05-06T05:04:36.721Z,7.25
2023-05-06T05:05:37.045Z,7.50
2023-05-06T05:06:34.016Z,7.40
2023-05-06T05:07:31.112Z,7.12
2023-05-06T05:08:28.051Z,7.68
2023-05-06T05:09:25.036Z,7.57
2023-05-06T05:10:22.242Z,7.57
2023-05-06T05:11:19.194Z,7.65
2023-05-06T05:12:16.197Z,9.13
2023-05-06T05:13:14.226Z,8.07
2023-05-06T05:14:11.538Z,7.50
2023-05-06T05:15:09.249Z,8.43
2023-05-06T05:16:06.936Z,7.55
2023-05-06T05:17:03.975Z,7.50
2023-05-06T05:18:00.994Z,7.62
2023-05-06T05:18:58.038Z,8.20
2023-05-06T05:19:54.991Z,7.32
2023-05-06T05:20:52.110Z,8.90
2023-05-06T05:21:49.413Z,8.30
2023-05-06T05:22:46.603Z,7.78
2023-05-06T05:23:43.610Z,8.23
2023-05-06T05:24:40.775Z,9.18
2023-05-06T05:25:37.709Z,8.10
2023-05-06T05:26:34.657Z,9.02
2023-05-06T05:27:31.692Z,11.52
2023-05-06T05:28:28.826Z,8.27
2023-05-06T05:29:25.878Z,9.05
2023-05-06T05:30:22.997Z,9.40
2023-05-06T05:31:20.075Z,10.45
2023-05-06T05:32:17.055Z,10.40
2023-05-06T05:33:14.131Z,9.30
2023-05-06T05:34:11.336Z,8.93
2023-05-06T05:35:10.756Z,9.80
2023-05-06T05:36:08.494Z,8.50
2023-05-06T05:37:05.440Z,9.35
2023-05-06T05:38:02.475Z,15.05
2023-05-06T05:38:59.434Z,8.85
2023-05-06T05:39:56.369Z,8.88
2023-05-06T05:40:53.413Z,8.90
2023-05-06T05:41:50.365Z,8.90
2023-05-06T05:42:47.271Z,8.45
2023-05-06T05:43:44.239Z,9.48
2023-05-06T05:44:41.178Z,13.62
2023-05-06T05:45:38.252Z,9.05
2023-05-06T05:46:35.261Z,10.18
2023-05-06T05:47:32.385Z,9.85
2023-05-06T05:48:31.295Z,11.68
2023-05-06T05:49:28.250Z,11.15
2023-05-06T05:50:26.453Z,8.90
2023-05-06T05:51:23.391Z,8.50
2023-05-06T05:52:20.359Z,10.07
2023-05-06T05:53:17.352Z,9.60
2023-05-06T05:54:15.085Z,10.27
2023-05-06T05:55:12.346Z,8.40
2023-05-06T05:56:09.392Z,9.43
2023-05-06T05:57:06.410Z,9.13
2023-05-06T05:58:03.504Z,8.73
2023-05-06T05:59:01.172Z,8.70
2023-05-06T05:59:58.668Z,8.60
2023-05-06T06:00:55.691Z,11.77
2023-05-06T06:01:52.743Z,10.15
2023-05-06T06:02:49.741Z,13.82
2023-05-06T06:03:47.947Z,11.57
2023-05-06T06:04:45.112Z,11.48
2023-05-06T06:05:42.170Z,12.48
2023-05-06T06:06:39.215Z,12.00
2023-05-06T06:07:36.538Z,12.37
2023-05-06T06:08:34.070Z,12.50
2023-05-06T06:09:31.172Z,12.32
2023-05-06T06:10:28.497Z,11.55
2023-05-06T06:11:31.341Z,12.77
2023-05-06T06:12:28.316Z,11.20
2023-05-06T06:13:27.916Z,11.43
2023-05-06T06:14:25.653Z,12.35
2023-05-06T06:15:22.650Z,12.10
2023-05-06T06:16:19.644Z,11.48
2023-05-06T06:17:16.710Z,11.43
2023-05-06T06:18:13.697Z,14.02
2023-05-06T06:19:10.839Z,11.77
2023-05-06T06:20:08.488Z,14.57
2023-05-06T06:21:05.568Z,13.85
2023-05-06T06:22:02.580Z,12.55
2023-05-06T06:22:59.550Z,13.07
2023-05-06T06:23:58.093Z,11.85
2023-05-06T06:24:55.187Z,12.70
2023-05-06T06:25:52.161Z,13.35
2023-05-06T06:26:49.130Z,12.20
2023-05-06T06:27:46.133Z,22.85
2023-05-06T06:28:44.924Z,17.25
2023-05-06T06:29:41.964Z,28.08
2023-05-06T06:30:38.975Z,33.63
2023-05-06T06:31:37.574Z,39.20
2023-05-06T06:32:36.072Z,23.52
2023-05-06T06:33:33.090Z,15.55
2023-05-06T06:34:30.057Z,13.13
2023-05-06T06:35:27.870Z,12.35
2023-05-06T06:36:24.978Z,13.10
2023-05-06T06:37:22.794Z,14.55
2023-05-06T06:38:19.910Z,21.83
2023-05-06T06:39:16.928Z,17.20
2023-05-06T06:40:14.134Z,17.37
2023-05-06T06:41:11.727Z,17.67
2023-05-06T06:42:08.782Z,15.98
2023-05-06T06:43:05.801Z,16.48
2023-05-06T06:44:02.868Z,20.12
2023-05-06T06:45:00.015Z,16.52
2023-05-06T06:45:57.130Z,19.85
2023-05-06T06:46:54.135Z,15.75
2023-05-06T06:47:51.387Z,15.23
2023-05-06T06:48:48.551Z,19.40
2023-05-06T06:49:45.552Z,16.58
2023-05-06T06:50:42.808Z,13.75
2023-05-06T06:51:39.832Z,15.18
2023-05-06T06:52:36.791Z,14.50
2023-05-06T06:53:33.961Z,14.18
2023-05-06T06:54:30.961Z,14.23
2023-05-06T06:55:28.419Z,15.25
2023-05-06T06:56:25.387Z,15.48
2023-05-06T06:57:22.334Z,14.77
2023-05-06T06:58:19.268Z,15.48
2023-05-06T06:59:16.701Z,18.27
2023-05-06T07:00:14.387Z,14.35
2023-05-06T07:01:11.494Z,14.23
2023-05-06T07:02:08.649Z,14.20
2023-05-06T07:03:05.723Z,19.30
2023-05-06T07:04:03.477Z,15.50
2023-05-06T07:05:03.393Z,14.02
2023-05-06T07:06:00.391Z,16.40
2023-05-06T07:06:57.363Z,14.13
2023-05-06T07:07:55.777Z,16.52
2023-05-06T07:08:52.897Z,16.73
2023-05-06T07:09:50.149Z,13.75
2023-05-06T07:10:47.172Z,15.27
2023-05-06T07:11:44.114Z,15.95
2023-05-06T07:12:41.343Z,15.65
2023-05-06T07:13:38.397Z,16.30
2023-05-06T07:14:35.334Z,15.35
2023-05-06T07:15:32.330Z,16.77
2023-05-06T07:16:29.441Z,17.52
2023-05-06T07:17:26.476Z,19.58
2023-05-06T07:18:23.559Z,19.42
2023-05-06T07:19:20.577Z,18.23
2023-05-06T07:20:17.559Z,19.25
2023-05-06T07:21:14.579Z,17.65
2023-05-06T07:22:11.604Z,18.70
2023-05-06T07:23:08.567Z,18.05
2023-05-06T07:24:05.788Z,16.95
2023-05-06T07:25:02.689Z,18.23
2023-05-06T07:26:00.143Z,18.27
2023-05-06T07:26:57.948Z,17.67
2023-05-06T07:27:54.986Z,17.20
2023-05-06T07:28:52.072Z,15.57
2023-05-06T07:29:49.066Z,16.95
2023-05-06T07:30:46.311Z,20.25
2023-05-06T07:31:43.549Z,20.33
2023-05-06T07:32:41.547Z,16.52
2023-05-06T07:33:38.554Z,17.85
2023-05-06T07:34:36.312Z,19.25
2023-05-06T07:35:33.534Z,17.90
2023-05-06T07:36:36.438Z,18.00
2023-05-06T07:37:34.268Z,20.37
2023-05-06T07:38:31.349Z,25.02
2023-05-06T07:39:28.336Z,29.65
2023-05-06T07:40:25.347Z,20.75
2023-05-06T07:41:22.442Z,18.90
2023-05-06T07:42:19.387Z,15.48
2023-05-06T07:43:16.409Z,15.55
2023-05-06T07:44:13.443Z,13.23
2023-05-06T07:45:11.468Z,12.57
2023-05-06T07:46:08.672Z,13.52
2023-05-06T07:47:05.970Z,12.82
2023-05-06T07:48:03.059Z,14.93
2023-05-06T07:49:00.071Z,13.05
2023-05-06T07:49:57.210Z,12.65
2023-05-06T07:50:54.154Z,13.95
2023-05-06T07:51:51.431Z,14.07
2023-05-06T07:52:48.371Z,12.50
2023-05-06T07:53:45.869Z,12.55
2023-05-06T07:54:42.795Z,12.27
2023-05-06T07:55:39.866Z,17.05
2023-05-06T07:56:36.909Z,14.63
2023-05-06T07:57:33.929Z,18.50
2023-05-06T07:58:31.770Z,23.90
2023-05-06T07:59:28.766Z,13.45
2023-05-06T08:00:25.754Z,13.75
2023-05-06T08:01:23.108Z,13.70
2023-05-06T08:02:20.093Z,16.25
2023-05-06T08:03:17.346Z,16.83
2023-05-06T08:04:14.566Z,12.37
2023-05-06T08:05:11.810Z,11.60
2023-05-06T08:06:09.036Z,11.23
2023-05-06T08:07:06.099Z,11.12
2023-05-06T08:08:03.091Z,11.30
2023-05-06T08:09:00.763Z,14.13
2023-05-06T08:09:57.972Z,13.07
2023-05-06T08:10:56.085Z,12.20
2023-05-06T08:11:53.742Z,11.23
2023-05-06T08:12:50.785Z,12.15
2023-05-06T08:13:47.873Z,10.45
2023-05-06T08:14:45.153Z,12.25
2023-05-06T08:15:42.171Z,10.25
2023-05-06T08:16:39.132Z,12.68
2023-05-06T08:17:36.208Z,13.07
2023-05-06T08:18:33.751Z,10.95
2023-05-06T08:19:31.073Z,13.80
2023-05-06T08:20:29.200Z,12.15
2023-05-06T08:21:26.649Z,12.75
2023-05-06T08:22:47.297Z,12.57
2023-05-06T08:23:44.332Z,12.23
2023-05-06T08:24:43.262Z,17.80
2023-05-06T08:25:40.395Z,17.17
2023-05-06T08:26:37.453Z,12.30
2023-05-06T08:27:34.515Z,13.55
2023-05-06T08:28:32.907Z,10.90
2023-05-06T08:29:30.091Z,13.38
2023-05-06T08:30:27.279Z,12.30
2023-05-06T08:31:26.426Z,10.65
2023-05-06T08:32:23.498Z,11.50
2023-05-06T08:33:20.734Z,12.05
2023-05-06T08:34:20.457Z,11.98
2023-05-06T08:35:17.616Z,11.65
2023-05-06T08:36:14.693Z,11.32
2023-05-06T08:37:11.736Z,13.73
2023-05-06T08:38:09.372Z,10.82
2023-05-06T08:39:07.429Z,12.00
2023-05-06T08:40:05.666Z,11.93
2023-05-06T08:41:09.631Z,11.60
2023-05-06T08:42:07.020Z,10.77
2023-05-06T08:43:05.514Z,10.93
2023-05-06T08:44:02.573Z,11.55
2023-05-06T08:45:00.295Z,11.20
2023-05-06T08:45:57.677Z,10.27
2023-05-06T08:46:55.153Z,10.32
2023-05-06T08:47:52.762Z,10.57
2023-05-06T08:48:50.896Z,12.13
2023-05-06T08:49:51.172Z,12.80
2023-05-06T08:50:49.461Z,12.68
2023-05-06T08:51:46.934Z,13.82
2023-05-06T08:52:44.352Z,12.77
2023-05-06T08:53:44.073Z,15.90
2023-05-06T08:54:41.675Z,13.02
2023-05-06T08:55:42.195Z,10.85
2023-05-06T08:57:37.745Z,13.05
2023-05-06T08:58:35.919Z,10.88
2023-05-06T08:59:34.638Z,11.10
2023-05-06T09:00:31.757Z,12.07
2023-05-06T09:01:29.161Z,11.05
2023-05-06T09:02:26.934Z,10.85
2023-05-06T09:03:25.366Z,10.38
2023-05-06T09:04:22.515Z,12.48
2023-05-06T09:05:19.501Z,10.40
2023-05-06T09:06:16.586Z,11.27
2023-05-06T09:07:13.614Z,11.35
2023-05-06T09:08:11.918Z,14.07
2023-05-06T09:09:08.956Z,10.68
2023-05-06T09:10:13.267Z,11.40
2023-05-06T09:11:26.057Z,14.60
2023-05-06T09:12:26.863Z,13.52
2023-05-06T09:13:23.688Z,12.48
2023-05-06T09:14:21.886Z,12.52
2023-05-06T09:15:24.733Z,13.05
2023-05-06T09:16:32.082Z,14.07
2023-05-06T09:17:32.841Z,13.07
2023-05-06T09:18:30.067Z,12.20
2023-05-06T09:19:27.274Z,12.50
2023-05-06T09:20:24.332Z,13.05
2023-05-06T09:21:21.438Z,13.10
2023-05-06T09:22:21.786Z,13.73
2023-05-06T09:23:19.478Z,11.07
2023-05-06T09:24:17.182Z,12.43
2023-05-06T09:25:16.055Z,11.32
2023-05-06T09:26:13.483Z,11.35
2023-05-06T09:27:12.349Z,12.20
2023-05-06T09:28:12.817Z,11.48
2023-05-06T09:29:10.709Z,11.45
2023-05-06T09:30:08.638Z,10.88
2023-05-06T09:31:05.665Z,11.88
2023-05-06T09:32:06.206Z,14.00
2023-05-06T09:33:05.081Z,15.27
2023-05-06T09:34:02.119Z,13.95
2023-05-06T09:34:59.881Z,12.15
2023-05-06T09:36:01.115Z,13.52
2023-05-06T09:36:58.976Z,13.35
2023-05-06T09:37:57.075Z,12.73
2023-05-06T09:38:56.794Z,13.07
2023-05-06T09:39:59.354Z,12.57
2023-05-06T09:40:56.327Z,12.15
2023-05-06T09:41:54.123Z,12.68
2023-05-06T09:42:52.202Z,11.50
2023-05-06T09:43:49.620Z,12.27
2023-05-06T09:44:46.762Z,11.30
2023-05-06T09:45:45.164Z,15.80
2023-05-06T09:46:44.284Z,11.73
2023-05-06T09:47:42.480Z,13.13
2023-05-06T09:48:40.133Z,13.23
2023-05-06T09:49:40.884Z,11.12
2023-05-06T09:50:38.206Z,13.80
2023-05-06T09:51:35.215Z,12.37
2023-05-06T09:52:32.336Z,11.70
2023-05-06T09:53:30.194Z,11.00
2023-05-06T09:54:27.342Z,12.55
2023-05-06T09:55:27.391Z,13.13
2023-05-06T09:56:25.506Z,11.10
2023-05-06T09:57:22.796Z,12.02
2023-05-06T09:58:20.619Z,10.75
2023-05-06T09:59:18.861Z,14.55
2023-05-06T10:00:17.395Z,11.65
2023-05-06T10:01:25.162Z,13.43
2023-05-06T10:02:31.038Z,12.65
2023-05-06T10:03:28.542Z,15.95
2023-05-06T10:04:27.741Z,21.37
2023-05-06T10:05:26.002Z,11.38
2023-05-06T10:06:23.554Z,12.27
2023-05-06T10:07:25.917Z,13.40
2023-05-06T10:08:24.027Z,16.90
2023-05-06T10:09:24.283Z,16.30
2023-05-06T10:10:24.095Z,16.98
2023-05-06T10:11:23.364Z,14.25
2023-05-06T10:12:20.628Z,12.65
2023-05-06T10:13:19.525Z,12.27
2023-05-06T10:14:16.879Z,12.27
2023-05-06T10:15:14.031Z,13.70
2023-05-06T10:16:12.818Z,11.18
2023-05-06T10:17:14.295Z,11.35
2023-05-06T10:18:11.480Z,12.10
2023-05-06T10:19:09.744Z,13.05
2023-05-06T10:20:10.080Z,11.15
2023-05-06T10:21:12.860Z,11.93
2023-05-06T10:22:16.957Z,12.82
2023-05-06T10:23:24.512Z,14.15
2023-05-06T10:24:24.562Z,13.95
2023-05-06T10:25:28.988Z,11.10
2023-05-06T10:26:28.159Z,10.98
2023-05-06T10:27:25.499Z,10.32
2023-05-06T10:28:30.665Z,13.48
2023-05-06T10:29:28.674Z,12.50
2023-05-06T10:30:27.483Z,13.18
2023-05-06T10:31:26.109Z,14.70
2023-05-06T10:32:24.010Z,14.98
2023-05-06T10:33:23.878Z,14.02
2023-05-06T10:34:21.761Z,13.07
2023-05-06T10:35:46.562Z,12.35
2023-05-06T10:36:44.129Z,8.75
2023-05-06T10:37:41.992Z,13.68
2023-05-06T10:38:43.323Z,9.13
2023-05-06T10:39:42.141Z,10.48
2023-05-06T10:40:39.434Z,9.68
2023-05-06T10:41:38.460Z,11.55
2023-05-06T10:42:38.279Z,9.20
2023-05-06T10:43:39.573Z,11.07
2023-05-06T10:45:04.108Z,12.43
2023-05-06T10:46:05.770Z,12.60
2023-05-06T10:47:02.870Z,11.32
2023-05-06T10:48:09.388Z,12.90
2023-05-06T10:49:06.791Z,12.68
2023-05-06T10:50:22.981Z,14.68
2023-05-06T10:51:23.289Z,14.68
2023-05-06T10:52:20.968Z,12.25
2023-05-06T10:53:57.516Z,16.33
2023-05-06T10:54:54.659Z,14.43
2023-05-06T10:56:09.250Z,15.10
2023-05-06T10:57:10.767Z,14.48
2023-05-06T10:58:15.139Z,20.92
2023-05-06T10:59:13.072Z,16.10
2023-05-06T11:00:11.646Z,15.70
2023-05-06T11:01:11.481Z,15.73
2023-05-06T11:02:09.703Z,17.23
2023-05-06T11:03:08.655Z,16.05
2023-05-06T11:04:09.209Z,15.57
2023-05-06T11:05:06.988Z,16.23
2023-05-06T11:06:04.139Z,15.40
2023-05-06T11:07:12.172Z,17.60
2023-05-06T11:08:10.734Z,14.07
2023-05-06T11:09:24.930Z,16.15
2023-05-06T11:10:34.517Z,17.52
2023-05-06T11:11:52.353Z,18.20
2023-05-06T11:12:53.965Z,15.15
2023-05-06T11:13:53.614Z,17.15
2023-05-06T11:14:50.706Z,16.70
2023-05-06T11:15:50.889Z,15.65
2023-05-06T11:16:51.676Z,15.68
2023-05-06T11:17:48.776Z,17.15
2023-05-06T11:18:46.022Z,17.37
2023-05-06T11:19:42.950Z,25.27
2023-05-06T11:20:39.968Z,15.90
2023-05-06T11:21:38.089Z,17.35
2023-05-06T11:22:41.280Z,19.45
2023-05-06T11:23:47.233Z,15.27
2023-05-06T11:24:44.510Z,18.42
2023-05-06T11:25:43.451Z,17.42
2023-05-06T11:26:41.269Z,19.87
2023-05-06T11:27:38.595Z,16.67
2023-05-06T11:28:36.415Z,13.80
2023-05-06T11:29:33.664Z,14.07
2023-05-06T11:30:30.753Z,19.02
2023-05-06T11:31:28.320Z,17.25
2023-05-06T11:32:26.729Z,13.85
2023-05-06T11:33:24.669Z,15.82
2023-05-06T11:34:25.952Z,17.65
2023-05-06T11:35:23.508Z,16.48
2023-05-06T11:36:21.415Z,18.35
2023-05-06T11:37:26.184Z,18.87
2023-05-06T11:38:23.171Z,19.65
2023-05-06T11:39:20.182Z,17.70
2023-05-06T11:40:17.176Z,18.60
2023-05-06T11:41:15.821Z,16.37
2023-05-06T11:42:13.487Z,18.60
2023-05-06T11:43:14.682Z,17.73
2023-05-06T11:44:13.652Z,22.45
2023-05-06T11:45:12.289Z,20.95
2023-05-06T11:46:09.334Z,20.60
2023-05-06T11:47:07.787Z,20.80
2023-05-06T11:48:04.937Z,23.02
2023-05-06T11:49:01.933Z,20.50
2023-05-06T11:49:59.400Z,22.13
2023-05-06T11:50:56.469Z,20.05
2023-05-06T11:51:54.663Z,20.73
2023-05-06T11:52:51.981Z,20.35
2023-05-06T11:53:49.000Z,21.58
2023-05-06T11:54:45.909Z,21.87
2023-05-06T11:55:43.920Z,22.15
2023-05-06T11:56:49.397Z,22.23
2023-05-06T11:57:47.241Z,21.12
2023-05-06T11:58:44.369Z,25.70
2023-05-06T11:59:41.625Z,23.87
2023-05-06T12:00:52.069Z,22.80
2023-05-06T12:02:46.304Z,22.83
2023-05-06T12:03:43.462Z,25.27
2023-05-06T12:04:47.284Z,24.98
2023-05-06T12:05:44.930Z,25.20
2023-05-06T12:06:42.083Z,26.08
2023-05-06T12:07:41.656Z,27.73
2023-05-06T12:08:38.751Z,29.12
2023-05-06T12:09:37.309Z,25.60
2023-05-06T12:10:34.414Z,25.30
2023-05-06T12:11:31.578Z,24.15
2023-05-06T12:12:28.696Z,24.23
2023-05-06T12:13:26.026Z,22.92
2023-05-06T12:14:23.295Z,23.85
2023-05-06T12:15:20.556Z,20.60
2023-05-06T12:16:17.570Z,21.75
2023-05-06T12:17:15.046Z,20.95
2023-05-06T12:18:12.949Z,23.95
2023-05-06T12:19:09.948Z,20.45
2023-05-06T12:20:08.094Z,22.42
2023-05-06T12:21:06.227Z,21.02
2023-05-06T12:22:20.825Z,21.00
2023-05-06T12:23:18.230Z,22.17
2023-05-06T12:24:15.372Z,22.13
2023-05-06T12:25:16.060Z,20.70
2023-05-06T12:27:09.978Z,19.25
2023-05-06T12:28:17.040Z,25.10
2023-05-06T12:29:17.507Z,20.50
2023-05-06T12:30:14.537Z,26.08
2023-05-06T12:31:22.755Z,20.58
2023-05-06T12:32:19.889Z,18.95
2023-05-06T12:33:16.799Z,17.37
2023-05-06T12:34:18.677Z,18.50
2023-05-06T12:35:26.330Z,23.77
2023-05-06T12:36:23.330Z,20.67
2023-05-06T12:37:29.034Z,22.10
2023-05-06T12:38:27.310Z,19.98
2023-05-06T12:39:34.797Z,19.23
2023-05-06T12:40:31.864Z,21.10
2023-05-06T12:41:39.279Z,21.87
2023-05-06T12:42:36.289Z,20.33
2023-05-06T12:43:33.566Z,22.33
2023-05-06T12:44:36.627Z,19.75
2023-05-06T12:45:33.840Z,19.48
2023-05-06T12:46:30.866Z,19.20